Latest Weather Observations for Badgingarra

IDW60801

Issued at 10:05 pm WST Sunday 23 November 2014 (issued every 30 minutes, with the page automatically refreshed every 10 minutes)

About weather observations | Map of weather stations | Latest weather observations for WA | Other Formats
Station Details ID: 009037 Name: BADGINGARRA RESEARCH STN Lat: -30.34 Lon: 115.54 Height: 275.0 m
Data from the previous 72 hours. | See also: Recent months at Badgingarra
Date/Time
WST
Temp
°C
App
Temp
°C
Dew
Point
Rel
Hum
%
Delta-T
°C
Wind Press
QNH
hPa
Press
MSL
hPa
Rain
since 9 am
mm
Dir
 
Spd
km/h
Gust
km/h
Spd
kts
Gust
kts
23/10:00pm 13.2 7.6 8.9 75 2.2 S 28 35 15 19 - - 0.0
23/09:30pm 13.4 7.4 8.7 73 2.4 S 30 39 16 21 - - 0.0
23/09:00pm 13.7 8.9 8.7 72 2.6 S 24 30 13 16 - - 0.0
23/08:30pm 14.4 9.6 9.0 70 2.8 S 24 32 13 17 - - 0.0
23/08:00pm 14.6 10.7 9.6 72 2.6 SSW 20 28 11 15 - - 0.0
23/07:30pm 15.0 10.7 9.4 69 2.9 SSW 22 28 12 15 - - 0.0
23/07:00pm 15.9 10.8 9.3 65 3.5 SSW 26 33 14 18 - - 0.0
23/06:30pm 17.3 11.1 9.5 60 4.1 SSW 32 41 17 22 - - 0.0
23/06:00pm 18.8 13.4 9.6 55 4.9 SSW 28 37 15 20 - - 0.0
23/05:30pm 20.1 14.6 9.1 49 5.9 SSW 28 39 15 21 - - 0.0
23/05:00pm 21.5 16.0 9.1 45 6.7 SSW 28 39 15 21 - - 0.0
23/04:30pm 21.9 15.9 8.8 43 7.0 SSW 30 41 16 22 - - 0.0
23/04:00pm 22.7 16.9 8.0 39 7.8 S 28 43 15 23 - - 0.0
23/03:30pm 23.4 17.2 7.9 37 8.3 SSW 30 41 16 22 - - 0.0
23/03:00pm 24.1 18.6 7.7 35 8.8 SSW 26 39 14 21 - - 0.0
23/02:30pm 24.0 18.9 7.6 35 8.7 S 24 35 13 19 - - 0.0
23/02:00pm 23.7 19.8 7.3 35 8.7 SSW 17 32 9 17 - - 0.0
23/01:30pm 23.0 18.8 7.5 37 8.2 S 19 26 10 14 - - 0.0
23/01:00pm 24.0 20.4 8.4 37 8.4 S 17 26 9 14 - - 0.0
23/12:30pm 23.2 19.6 6.9 35 8.5 S 15 24 8 13 - - 0.0
23/12:00pm 22.2 18.2 6.8 37 8.0 SSW 17 30 9 16 - - 0.0
23/11:30am 22.3 18.1 7.3 38 7.9 SSW 19 35 10 19 - - 0.0
23/11:00am 21.8 17.9 6.9 38 7.7 S 17 30 9 16 - - 0.0
23/10:30am 21.1 17.4 8.0 43 6.9 S 17 26 9 14 - - 0.0
23/10:00am 21.7 16.7 8.2 42 7.2 SSW 24 37 13 20 - - 0.0
23/09:30am 20.5 16.4 8.5 46 6.4 S 20 37 11 20 - - 0.0
23/09:00am 19.6 14.3 8.3 48 5.9 S 26 35 14 19 - - 0.0
23/08:30am 19.3 13.9 8.0 48 5.9 S 26 50 14 27 - - 0.0
23/08:00am 18.7 13.5 8.7 52 5.3 S 26 41 14 22 - - 0.0
23/07:30am 18.0 13.3 9.1 56 4.7 S 24 33 13 18 - - 0.0
23/07:00am 15.5 12.6 10.9 74 2.5 S 17 24 9 13 - - 0.0
23/06:30am 14.0 12.3 11.2 83 1.5 S 11 15 6 8 - - 0.0
23/06:00am 12.4 10.2 10.8 90 0.8 S 13 17 7 9 - - 0.0
23/05:30am 10.7 8.2 9.8 94 0.5 S 13 15 7 8 - - 0.0
23/05:00am 10.5 7.6 9.7 95 0.4 S 15 17 8 9 - - 0.0
23/04:30am 10.3 7.7 9.4 94 0.5 S 13 15 7 8 - - 0.0
23/04:00am 10.7 7.9 10.1 96 0.3 S 15 17 8 9 - - 0.0
23/03:30am 8.6 6.2 7.2 91 0.7 S 9 13 5 7 - - 0.0
23/03:00am 11.4 9.4 10.0 91 0.7 S 11 15 6 8 - - 0.0
23/02:30am 11.0 9.4 10.1 94 0.5 S 9 13 5 7 - - 0.0
23/02:00am 10.7 7.8 9.6 93 0.6 S 15 15 8 8 - - 0.0
23/01:30am 11.2 8.3 9.8 91 0.7 S 15 19 8 10 - - 0.0
23/01:00am 12.3 8.7 10.5 89 0.9 S 20 24 11 13 - - 0.0
23/12:30am 12.9 9.0 10.8 87 1.1 S 22 30 12 16 - - 0.0
23/12:00am 13.0 9.1 10.9 87 1.1 S 22 30 12 16 - - 0.0
 
Date/Time
WST
Temp
°C
App
Temp
°C
Dew
Point
Rel
Hum
%
Delta-T
°C
Wind Press
QNH
hPa
Press
MSL
hPa
Rain
since 9 am
mm
Dir
 
Spd
km/h
Gust
km/h
Spd
kts
Gust
kts
22/11:30pm 13.0 9.4 10.7 86 1.2 S 20 26 11 14 - - 0.0
22/11:00pm 12.9 9.3 9.7 81 1.7 S 19 24 10 13 - - 0.0
22/10:30pm 13.0 8.8 9.8 81 1.7 SSW 22 26 12 14 - - 0.0
22/10:00pm 13.4 10.0 10.4 82 1.6 S 19 24 10 13 - - 0.0
22/09:30pm 13.5 10.5 10.5 82 1.6 S 17 20 9 11 - - 0.0
22/09:00pm 13.8 10.5 10.8 82 1.6 SSW 19 22 10 12 - - 0.0
22/08:30pm 13.8 10.8 10.6 81 1.7 SSW 17 20 9 11 - - 0.0
22/08:00pm 14.3 10.9 10.7 79 1.9 SSW 19 26 10 14 - - 0.0
22/07:30pm 14.9 11.5 10.5 75 2.3 SSW 19 24 10 13 - - 0.0
22/07:00pm 15.9 12.0 10.7 71 2.8 SSW 22 30 12 16 - - 0.0
22/06:30pm 16.9 12.3 11.2 69 3.1 SSW 26 32 14 17 - - 0.0
22/06:00pm 18.7 14.2 11.5 63 4.0 SW 26 33 14 18 - - 0.0
22/05:30pm 18.1 12.9 11.7 66 3.6 SSW 30 35 16 19 - - 0.0
22/05:00pm 19.7 14.5 11.5 59 4.6 SW 30 41 16 22 - - 0.0
22/04:30pm 19.2 13.5 11.3 60 4.4 SW 32 41 17 22 - - 0.0
22/04:00pm 21.7 16.4 12.5 56 5.3 SW 32 43 17 23 - - 0.0
22/03:30pm 21.7 17.2 11.4 52 5.8 SW 26 37 14 20 - - 0.0
22/03:00pm 21.5 17.2 10.6 50 6.0 SW 24 35 13 19 - - 0.0
22/02:30pm 21.3 17.6 11.6 54 5.5 SW 22 35 12 19 - - 0.0
22/02:00pm 21.1 17.9 11.2 53 5.5 WSW 19 26 10 14 - - 0.0
22/01:30pm 22.0 18.2 11.1 50 6.1 SW 22 32 12 17 - - 0.0
22/01:00pm 21.3 19.1 10.8 51 5.8 W 13 20 7 11 - - 0.0
22/12:38pm 21.9 17.2 11.9 53 5.7 W 28 33 15 18 - - 0.0
22/12:30pm 21.1 19.6 10.6 51 5.8 S 9 15 5 8 - - 0.0
22/12:00pm 20.1 18.0 11.3 57 4.9 SSW 13 15 7 8 - - 0.0
22/11:30am 20.4 18.0 10.2 52 5.6 W 13 19 7 10 - - 0.0
22/11:00am 19.9 16.9 10.6 55 5.1 WSW 17 22 9 12 - - 0.0
22/10:30am 20.1 18.4 9.9 52 5.5 SSW 9 20 5 11 - - 0.0
22/10:00am 21.0 19.2 9.3 47 6.3 S 9 15 5 8 - - 0.0
22/09:30am 18.8 17.2 10.1 57 4.7 S 9 17 5 9 - - 0.0
22/09:00am 17.5 15.1 11.5 68 3.3 S 15 20 8 11 - - 0.0
22/08:30am 18.4 16.1 11.7 65 3.7 S 15 17 8 9 - - 0.0
22/08:00am 16.3 15.3 12.3 77 2.2 SW 9 17 5 9 - - 0.0
22/07:30am 16.5 15.3 11.6 73 2.7 SW 9 17 5 9 - - 0.0
22/07:00am 15.9 15.4 11.9 77 2.2 NE 6 7 3 4 - - 0.0
22/06:30am 13.6 12.8 11.7 88 1.0 N 7 7 4 4 - - 0.0
22/06:00am 12.6 11.8 11.0 90 0.8 N 6 6 3 3 - - 0.0
22/05:30am 12.5 12.1 11.2 92 0.7 N 4 4 2 2 - - 0.0
22/05:00am 12.5 11.8 11.4 93 0.6 WSW 6 7 3 4 - - 0.0
22/04:30am 12.6 10.1 11.0 90 0.8 SSW 15 20 8 11 - - 0.0
22/04:00am 9.8 8.3 9.0 95 0.4 SW 7 9 4 5 - - 0.0
22/03:30am 8.3 6.0 7.4 94 0.4 SW 9 9 5 5 - - 0.0
22/03:00am 8.0 5.1 6.6 91 0.7 SW 11 11 6 6 - - 0.0
22/02:30am 9.5 7.0 8.1 91 0.7 SW 11 13 6 7 - - 0.0
22/02:00am 10.8 8.5 8.9 88 1.0 SSW 11 13 6 7 - - 0.0
22/01:30am 13.6 12.6 11.0 84 1.4 SW 7 11 4 6 - - 0.0
22/01:00am 13.5 12.9 11.6 88 1.0 SW 6 9 3 5 - - 0.0
22/12:30am 13.5 12.8 12.1 91 0.8 SW 7 9 4 5 - - 0.0
22/12:00am 12.8 12.3 12.2 96 0.3 SW 6 7 3 4 - - 0.0
 
Date/Time
WST
Temp
°C
App
Temp
°C
Dew
Point
Rel
Hum
%
Delta-T
°C
Wind Press
QNH
hPa
Press
MSL
hPa
Rain
since 9 am
mm
Dir
 
Spd
km/h
Gust
km/h
Spd
kts
Gust
kts
21/11:30pm 12.4 11.9 11.9 97 0.3 SW 6 7 3 4 - - 0.0
21/11:00pm 11.5 10.5 11.0 97 0.3 SW 7 9 4 5 - - 0.0
21/10:30pm 11.7 10.7 11.1 96 0.3 SW 7 9 4 5 - - 0.0
21/10:00pm 11.7 10.3 10.9 95 0.4 SW 9 11 5 6 - - 0.0
21/09:30pm 12.9 11.4 12.0 94 0.5 SSW 11 13 6 7 - - 0.0
21/09:00pm 14.3 13.3 13.3 94 0.6 SW 11 13 6 7 - - 0.0
21/08:30pm 14.8 14.6 13.5 92 0.7 SW 7 9 4 5 - - 0.0
21/08:00pm 15.9 14.5 14.4 91 0.9 SSW 15 19 8 10 - - 0.0
21/07:30pm 15.8 13.6 14.3 91 0.9 SSW 19 24 10 13 - - 0.0
21/07:00pm 15.9 13.8 14.8 93 0.6 SSW 19 22 10 12 - - 0.0
21/06:30pm 16.0 13.8 14.9 93 0.6 SSW 20 28 11 15 - - 0.0
21/06:00pm 16.9 15.1 15.4 91 0.9 SW 19 26 10 14 - - 0.0
21/05:30pm 17.6 16.6 15.6 88 1.2 W 15 19 8 10 - - 0.0
21/05:00pm 19.0 17.4 14.9 77 2.4 WSW 17 24 9 13 - - 0.0
21/04:30pm 19.1 16.3 15.4 79 2.2 WSW 24 30 13 16 - - 0.0
21/04:00pm 20.2 15.8 14.1 68 3.6 WSW 30 41 16 22 - - 0.0
21/03:30pm 22.1 17.8 15.5 66 4.0 WSW 32 39 17 21 - - 0.0
21/03:00pm 22.4 17.9 12.6 54 5.7 W 28 39 15 21 - - 0.0
21/02:30pm 23.0 18.8 12.3 51 6.2 W 26 37 14 20 - - 0.0
21/02:00pm 23.5 19.6 12.2 49 6.5 W 24 33 13 18 - - 0.0
21/01:30pm 24.9 21.7 13.1 48 6.9 W 22 33 12 18 - - 0.0
21/01:00pm 23.5 20.7 13.1 52 6.1 W 20 30 11 16 - - 0.0
21/12:30pm 23.2 19.8 12.5 51 6.2 W 22 30 12 16 - - 0.0
21/12:00pm 23.4 21.2 12.1 49 6.5 W 15 26 8 14 - - 0.0
21/11:30am 23.3 20.4 12.3 50 6.3 W 19 26 10 14 - - 0.0
21/11:00am 21.6 19.0 11.9 54 5.5 W 17 24 9 13 - - 0.0
21/10:30am 21.2 18.4 12.6 58 4.9 W 19 28 10 15 - - 0.0
21/10:00am 20.9 17.8 12.3 58 4.9 W 20 26 11 14 - - 0.0
21/09:30am 21.2 19.1 12.3 57 5.1 WNW 15 24 8 13 - - 0.0
21/09:00am 19.9 18.7 12.7 63 4.1 W 11 20 6 11 - - 0.0
21/08:30am 19.1 17.6 13.1 68 3.4 W 13 20 7 11 - - 0.0
21/08:00am 19.4 18.5 13.6 69 3.4 WNW 11 17 6 9 - - 0.0
21/07:30am 17.0 15.9 13.1 78 2.2 W 11 15 6 8 - - 0.0
21/07:00am 15.7 15.7 14.1 90 0.9 W 7 9 4 5 - - 0.0
21/06:30am 14.5 14.3 13.7 95 0.5 WNW 7 9 4 5 - - 0.0
21/06:00am 13.4 13.1 13.4 100 0.0 W 7 9 4 5 - - 0.0
21/05:30am 11.6 10.6 11.0 96 0.3 W 7 9 4 5 - - 0.0
21/05:00am 11.9 11.0 11.4 97 0.3 W 7 9 4 5 - - 0.0
21/04:30am 12.0 11.1 11.5 97 0.3 W 7 7 4 4 - - 0.0
21/04:00am 11.8 10.9 11.2 96 0.3 W 7 7 4 4 - - 0.0
21/03:30am 11.9 10.6 11.3 96 0.3 W 9 9 5 5 - - 0.0
21/03:00am 11.5 10.1 10.9 96 0.3 W 9 9 5 5 - - 0.0
21/02:30am 10.8 9.5 10.0 95 0.4 WSW 7 9 4 5 - - 0.0
21/02:00am 11.5 10.6 10.7 95 0.4 W 6 6 3 3 - - 0.0
21/01:30am 11.4 10.5 10.5 94 0.5 WSW 6 7 3 4 - - 0.0
21/01:00am 11.3 9.4 10.5 95 0.4 WSW 11 13 6 7 - - 0.0
21/12:30am 10.9 9.2 10.0 94 0.5 WSW 9 9 5 5 - - 0.0
21/12:00am 11.4 9.9 10.5 94 0.5 WSW 9 9 5 5 - - 0.0
 
Date/Time
WST
Temp
°C
App
Temp
°C
Dew
Point
Rel
Hum
%
Delta-T
°C
Wind Press
QNH
hPa
Press
MSL
hPa
Rain
since 9 am
mm
Dir
 
Spd
km/h
Gust
km/h
Spd
kts
Gust
kts
20/11:30pm 11.2 9.5 10.0 92 0.6 WSW 9 11 5 6 - - 0.0
20/11:00pm 12.5 11.8 11.4 93 0.6 WSW 6 7 3 4 - - 0.0
20/10:30pm 12.3 11.4 10.5 89 0.9 SW 6 9 3 5 - - 0.0

Other Formats:

Comma delimited format used in spreadsheet applications
http://www.bom.gov.au/fwo/IDW60801/IDW60801.94603.axf

JavaScript Object Notation format (JSON) in row-major order
http://www.bom.gov.au/fwo/IDW60801/IDW60801.94603.json